Time;durP1;ratioP1;P1;durP2;ratioP2;P2;SDS_P1;SDS_P2;PMS_P1;PMS_P2;Temp;Humidity;BMP_temperature;BMP_pressure;BME280_temperature;BME280_humidity;BME280_pressure;Samples;Min_cycle;Max_cycle;Signal;HPM_P1;HPM_P2
2021/07/30 00:00:26;;;;;;;5.93;5.30;;;;;;;;;;5097646;28;20074;-79
2021/07/30 00:02:52;;;;;;;5.97;5.32;;;;;;;;;;5106893;28;20032;-79
2021/07/30 00:05:19;;;;;;;5.82;5.22;;;;;;;;;;5106346;28;20020;-79
2021/07/30 00:07:45;;;;;;;5.75;5.18;;;;;;;;;;5085764;28;20108;-79
2021/07/30 00:10:11;;;;;;;7.20;5.40;;;;;;;;;;5077471;28;20030;-79
2021/07/30 00:12:37;;;;;;;5.78;5.18;;;;;;;;;;5076993;28;20036;-79
2021/07/30 00:15:06;;;;;;;6.13;5.15;;;;;;;;;;5085866;28;20492;-79
2021/07/30 00:17:32;;;;;;;6.03;5.43;;;;;;;;;;5094487;28;20122;-78
2021/07/30 00:19:58;;;;;;;5.68;5.07;;;;;;;;;;5096182;28;20564;-78
2021/07/30 00:22:24;;;;;;;5.95;5.43;;;;;;;;;;5095095;28;20055;-78
2021/07/30 00:24:50;;;;;;;6.15;5.47;;;;;;;;;;5096856;28;20606;-79
2021/07/30 00:27:16;;;;;;;7.88;5.68;;;;;;;;;;5094136;28;20024;-78
2021/07/30 00:29:42;;;;;;;6.70;5.53;;;;;;;;;;5076075;28;20378;-78
2021/07/30 00:32:08;;;;;;;6.72;5.38;;;;;;;;;;5074863;28;20477;-78
2021/07/30 00:34:34;;;;;;;6.22;5.63;;;;;;;;;;5077018;28;20134;-79
2021/07/30 00:37:00;;;;;;;5.88;5.28;;;;;;;;;;5076434;28;20500;-78
2021/07/30 00:39:27;;;;;;;6.60;6.00;;;;;;;;;;5076294;28;20043;-78
2021/07/30 00:41:53;;;;;;;6.18;5.57;;;;;;;;;;5075901;28;20036;-79
2021/07/30 00:44:19;;;;;;;7.90;6.20;;;;;;;;;;5087335;28;20024;-78
2021/07/30 00:46:45;;;;;;;6.70;5.95;;;;;;;;;;5081773;28;20082;-79
2021/07/30 00:49:11;;;;;;;6.40;5.80;;;;;;;;;;5077831;28;20023;-79
2021/07/30 00:51:38;;;;;;;6.60;5.72;;;;;;;;;;5075473;28;20048;-78
2021/07/30 00:54:04;;;;;;;5.53;5.00;;;;;;;;;;5075105;28;20028;-79
2021/07/30 00:56:31;;;;;;;8.05;5.90;;;;;;;;;;5076511;28;20036;-79
2021/07/30 00:58:58;;;;;;;7.18;5.20;;;;;;;;;;5074410;28;20028;-79
2021/07/30 01:01:24;;;;;;;6.18;5.57;;;;;;;;;;5076143;28;20035;-79
2021/07/30 01:03:50;;;;;;;6.38;5.78;;;;;;;;;;5075939;28;20044;-79
2021/07/30 01:06:16;;;;;;;6.40;5.80;;;;;;;;;;5075890;28;20032;-79
2021/07/30 01:08:44;;;;;;;6.18;5.57;;;;;;;;;;5078188;28;20082;-79
2021/07/30 01:11:10;;;;;;;5.95;5.35;;;;;;;;;;5097471;28;20024;-79
2021/07/30 01:13:36;;;;;;;6.38;5.65;;;;;;;;;;5094942;28;20050;-79
2021/07/30 01:16:02;;;;;;;6.45;5.85;;;;;;;;;;5086440;28;20028;-78
2021/07/30 01:18:28;;;;;;;6.40;5.80;;;;;;;;;;5096564;28;20112;-79
2021/07/30 01:21:02;;;;;;;5.75;5.20;;;;;;;;;;5095896;28;20032;-78
2021/07/30 01:23:29;;;;;;;5.85;5.22;;;;;;;;;;5097200;28;20017;-79
2021/07/30 01:25:55;;;;;;;5.53;5.03;;;;;;;;;;5097533;28;20168;-79
2021/07/30 01:28:21;;;;;;;6.82;5.50;;;;;;;;;;5096016;28;20085;-78
2021/07/30 01:30:47;;;;;;;5.22;4.70;;;;;;;;;;5081873;28;20028;-78
2021/07/30 01:33:13;;;;;;;5.80;5.22;;;;;;;;;;5077221;28;20036;-78
2021/07/30 01:35:39;;;;;;;5.95;5.35;;;;;;;;;;5077615;28;20131;-79
2021/07/30 01:38:05;;;;;;;5.55;5.00;;;;;;;;;;5076994;28;20063;-79
2021/07/30 01:40:31;;;;;;;6.05;5.47;;;;;;;;;;5076214;28;20131;-77
2021/07/30 01:42:57;;;;;;;5.25;4.45;;;;;;;;;;5078763;28;20025;-79
2021/07/30 01:45:23;;;;;;;5.47;4.95;;;;;;;;;;5088423;28;20016;-79
2021/07/30 01:47:51;;;;;;;5.10;4.60;;;;;;;;;;5097848;28;20024;-79
2021/07/30 01:50:17;;;;;;;5.03;4.50;;;;;;;;;;5093743;28;20048;-77
2021/07/30 01:52:43;;;;;;;6.43;5.32;;;;;;;;;;5094619;28;20053;-79
2021/07/30 01:55:09;;;;;;;5.82;4.90;;;;;;;;;;5093448;28;20024;-80
2021/07/30 01:57:35;;;;;;;6.63;5.15;;;;;;;;;;5076046;28;20036;-79
2021/07/30 02:00:02;;;;;;;5.60;5.10;;;;;;;;;;5075964;28;20051;-79
2021/07/30 02:02:32;;;;;;;5.85;5.25;;;;;;;;;;5076251;28;20067;-79
2021/07/30 02:04:59;;;;;;;8.48;6.45;;;;;;;;;;5076265;28;20016;-79
2021/07/30 02:07:25;;;;;;;7.45;5.35;;;;;;;;;;5075091;28;20031;-78
2021/07/30 02:09:51;;;;;;;6.90;6.10;;;;;;;;;;5075775;28;20105;-79
2021/07/30 02:12:17;;;;;;;6.57;5.88;;;;;;;;;;5088329;28;20032;-78
2021/07/30 02:14:43;;;;;;;6.00;5.50;;;;;;;;;;5086811;28;20382;-78
2021/07/30 02:17:09;;;;;;;6.03;5.43;;;;;;;;;;5095001;28;20435;-79
2021/07/30 02:19:35;;;;;;;5.55;5.07;;;;;;;;;;5096607;28;20507;-79
2021/07/30 02:22:01;;;;;;;5.63;5.13;;;;;;;;;;5084959;28;20111;-79
2021/07/30 02:24:27;;;;;;;5.70;5.10;;;;;;;;;;5075709;28;20033;-79
2021/07/30 02:26:53;;;;;;;5.03;4.53;;;;;;;;;;5075657;28;20044;-79
2021/07/30 02:29:20;;;;;;;5.63;5.03;;;;;;;;;;5075054;28;20024;-79
2021/07/30 02:31:48;;;;;;;5.68;5.13;;;;;;;;;;5081184;28;20353;-79
2021/07/30 02:34:14;;;;;;;5.28;4.78;;;;;;;;;;5096791;28;20020;-79
2021/07/30 02:36:40;;;;;;;5.93;4.82;;;;;;;;;;5096627;28;20024;-79
2021/07/30 02:39:06;;;;;;;7.10;5.20;;;;;;;;;;5095992;28;20469;-79
2021/07/30 02:41:32;;;;;;;6.43;5.68;;;;;;;;;;5095036;28;20488;-78
2021/07/30 02:43:59;;;;;;;7.05;5.70;;;;;;;;;;5093240;28;20335;-78
2021/07/30 02:46:25;;;;;;;8.18;7.00;;;;;;;;;;5097637;28;20040;-78
2021/07/30 02:48:51;;;;;;;6.70;6.05;;;;;;;;;;5113672;28;20055;-77
2021/07/30 02:51:18;;;;;;;7.40;6.65;;;;;;;;;;5113055;28;20047;-78
2021/07/30 02:53:44;;;;;;;7.53;6.70;;;;;;;;;;5113614;28;20028;-78
2021/07/30 02:56:10;;;;;;;6.40;5.80;;;;;;;;;;5112951;28;20070;-78
2021/07/30 02:58:36;;;;;;;7.97;7.18;;;;;;;;;;5113735;28;20029;-78
2021/07/30 03:01:03;;;;;;;7.25;6.55;;;;;;;;;;5113907;28;20039;-77
2021/07/30 03:03:29;;;;;;;8.35;7.25;;;;;;;;;;5114436;28;20031;-77
2021/07/30 03:05:57;;;;;;;6.75;6.00;;;;;;;;;;5112472;28;20052;-78
2021/07/30 03:08:24;;;;;;;7.03;6.43;;;;;;;;;;5096812;28;20042;-79
2021/07/30 03:10:50;;;;;;;6.40;5.80;;;;;;;;;;5094390;28;20020;-79
2021/07/30 03:13:16;;;;;;;6.13;5.47;;;;;;;;;;5091089;28;20024;-77
2021/07/30 03:15:42;;;;;;;7.45;6.75;;;;;;;;;;5097631;28;20040;-78
2021/07/30 03:18:08;;;;;;;7.07;6.38;;;;;;;;;;5101501;28;20020;-78
2021/07/30 03:20:34;;;;;;;7.95;6.43;;;;;;;;;;5095977;28;20046;-78
2021/07/30 03:23:00;;;;;;;8.05;6.45;;;;;;;;;;5098259;28;20048;-79
2021/07/30 03:25:26;;;;;;;7.63;6.57;;;;;;;;;;5111792;28;20019;-79
2021/07/30 03:27:53;;;;;;;6.70;5.72;;;;;;;;;;5101827;28;20024;-79
2021/07/30 03:30:19;;;;;;;7.05;6.20;;;;;;;;;;5099792;28;20028;-80
2021/07/30 03:32:45;;;;;;;8.68;7.40;;;;;;;;;;5098680;28;20036;-80
2021/07/30 03:35:11;;;;;;;7.78;6.80;;;;;;;;;;5082198;28;20381;-80
2021/07/30 03:37:37;;;;;;;7.78;6.97;;;;;;;;;;5081418;28;20047;-79
2021/07/30 03:40:04;;;;;;;8.43;7.05;;;;;;;;;;5088780;28;20072;-78
2021/07/30 03:42:30;;;;;;;9.27;7.35;;;;;;;;;;5097805;28;20024;-78
2021/07/30 03:44:56;;;;;;;8.10;6.45;;;;;;;;;;5098936;28;20032;-79
2021/07/30 03:47:22;;;;;;;8.50;7.28;;;;;;;;;;5105008;28;20054;-78
2021/07/30 03:49:48;;;;;;;9.27;6.38;;;;;;;;;;5102108;28;20036;-80
2021/07/30 03:52:17;;;;;;;7.63;6.70;;;;;;;;;;5102257;28;20046;-80
2021/07/30 03:54:43;;;;;;;8.40;6.70;;;;;;;;;;5100016;28;20012;-80
2021/07/30 03:57:09;;;;;;;8.52;6.80;;;;;;;;;;5101781;28;20024;-79
2021/07/30 03:59:35;;;;;;;7.18;6.30;;;;;;;;;;5099039;28;20031;-80
2021/07/30 04:02:02;;;;;;;11.43;8.25;;;;;;;;;;5099041;28;20425;-79
2021/07/30 04:04:28;;;;;;;9.90;7.47;;;;;;;;;;5096490;28;20032;-80
2021/07/30 04:06:54;;;;;;;7.75;6.95;;;;;;;;;;5077541;28;20024;-80
2021/07/30 04:09:21;;;;;;;7.05;6.25;;;;;;;;;;5078357;28;20024;-81
2021/07/30 04:11:47;;;;;;;6.82;6.13;;;;;;;;;;5078409;28;20123;-78
2021/07/30 04:14:13;;;;;;;5.95;5.35;;;;;;;;;;5085378;28;20028;-80
2021/07/30 04:16:39;;;;;;;6.85;6.15;;;;;;;;;;5092519;28;20020;-80
2021/07/30 04:19:07;;;;;;;5.82;5.25;;;;;;;;;;5097452;28;20040;-80
2021/07/30 04:21:34;;;;;;;6.30;5.65;;;;;;;;;;5098832;28;20150;-80
2021/07/30 04:24:01;;;;;;;6.45;5.85;;;;;;;;;;5098268;28;20065;-81
2021/07/30 04:26:27;;;;;;;5.47;4.97;;;;;;;;;;5102297;28;20760;-80
2021/07/30 04:28:53;;;;;;;4.90;4.40;;;;;;;;;;5109121;28;20080;-79
2021/07/30 04:31:19;;;;;;;5.65;4.70;;;;;;;;;;5108278;28;20024;-79
2021/07/30 04:33:45;;;;;;;4.97;4.47;;;;;;;;;;5106782;28;20032;-78
2021/07/30 04:36:15;;;;;;;5.45;4.85;;;;;;;;;;5098977;28;20032;-79
2021/07/30 04:38:42;;;;;;;7.60;5.07;;;;;;;;;;5088281;28;20090;-79
2021/07/30 04:41:08;;;;;;;4.93;4.45;;;;;;;;;;5089006;28;20021;-78
2021/07/30 04:43:34;;;;;;;5.07;4.57;;;;;;;;;;5094100;28;20024;-78
2021/07/30 04:46:00;;;;;;;6.43;4.95;;;;;;;;;;5099352;28;20020;-79
2021/07/30 04:48:26;;;;;;;4.93;4.43;;;;;;;;;;5109708;28;20044;-78
2021/07/30 04:50:52;;;;;;;5.03;4.53;;;;;;;;;;5110161;28;20028;-78
2021/07/30 04:53:18;;;;;;;4.93;4.50;;;;;;;;;;5108256;28;20024;-80
2021/07/30 04:55:44;;;;;;;5.15;4.65;;;;;;;;;;5109485;28;20054;-77
2021/07/30 04:58:10;;;;;;;5.10;4.60;;;;;;;;;;5082163;28;20397;-79
2021/07/30 05:00:36;;;;;;;5.47;4.68;;;;;;;;;;5077254;28;20039;-79
2021/07/30 05:03:02;;;;;;;5.13;4.63;;;;;;;;;;5077706;28;20038;-79
2021/07/30 05:05:29;;;;;;;5.40;4.75;;;;;;;;;;5077787;28;20058;-80
2021/07/30 05:07:55;;;;;;;5.05;4.38;;;;;;;;;;5089855;28;20462;-80
2021/07/30 05:10:21;;;;;;;4.95;4.25;;;;;;;;;;5096868;28;20073;-80
2021/07/30 05:12:47;;;;;;;5.70;3.95;;;;;;;;;;5095478;28;20032;-80
2021/07/30 05:15:14;;;;;;;4.50;4.10;;;;;;;;;;5088972;28;20025;-80
2021/07/30 05:17:40;;;;;;;7.40;4.57;;;;;;;;;;5096393;28;20510;-80
2021/07/30 05:20:07;;;;;;;5.22;4.72;;;;;;;;;;5096516;28;20104;-79
2021/07/30 05:22:33;;;;;;;5.05;4.57;;;;;;;;;;5085379;28;20107;-80
2021/07/30 05:24:59;;;;;;;5.60;5.00;;;;;;;;;;5088346;28;20021;-80
2021/07/30 05:27:26;;;;;;;8.15;5.38;;;;;;;;;;5077867;28;20021;-81
2021/07/30 05:29:52;;;;;;;5.95;5.35;;;;;;;;;;5080864;28;20044;-80
2021/07/30 05:32:18;;;;;;;5.85;5.25;;;;;;;;;;5094692;28;20075;-80
2021/07/30 05:34:44;;;;;;;6.30;5.40;;;;;;;;;;5096297;28;20066;-80
2021/07/30 05:37:11;;;;;;;5.65;4.68;;;;;;;;;;5076666;28;20111;-79
2021/07/30 05:39:37;;;;;;;5.00;4.55;;;;;;;;;;5097318;28;20042;-79
2021/07/30 05:42:04;;;;;;;6.10;5.22;;;;;;;;;;5100626;28;20024;-79
2021/07/30 05:44:30;;;;;;;5.05;4.55;;;;;;;;;;5096170;28;20031;-80
2021/07/30 05:46:56;;;;;;;5.65;5.15;;;;;;;;;;5080827;28;20040;-79
2021/07/30 05:49:22;;;;;;;7.30;4.63;;;;;;;;;;5081604;28;20094;-79
2021/07/30 05:51:48;;;;;;;6.03;4.45;;;;;;;;;;5081987;28;20483;-80
2021/07/30 05:54:14;;;;;;;4.60;3.92;;;;;;;;;;5081081;28;20092;-82
2021/07/30 05:56:40;;;;;;;4.40;4.00;;;;;;;;;;5088207;28;20099;-79
2021/07/30 05:59:06;;;;;;;4.50;4.10;;;;;;;;;;5076476;28;20044;-79
2021/07/30 06:01:32;;;;;;;5.15;4.10;;;;;;;;;;5084634;28;20032;-80
2021/07/30 06:03:58;;;;;;;7.07;5.30;;;;;;;;;;5096070;28;20453;-79
2021/07/30 06:06:24;;;;;;;5.40;4.90;;;;;;;;;;5095063;28;20062;-80
2021/07/30 06:08:50;;;;;;;5.07;4.57;;;;;;;;;;5090035;28;20028;-82
2021/07/30 06:11:16;;;;;;;4.63;4.15;;;;;;;;;;5085021;28;20032;-79
2021/07/30 06:13:42;;;;;;;6.50;4.60;;;;;;;;;;5085090;28;20111;-79
2021/07/30 06:16:10;;;;;;;4.25;3.88;;;;;;;;;;5087912;28;20068;-79
2021/07/30 06:18:37;;;;;;;3.75;3.45;;;;;;;;;;5096890;28;20031;-81
2021/07/30 06:21:04;;;;;;;4.10;3.70;;;;;;;;;;5082809;28;20046;-81
2021/07/30 06:23:30;;;;;;;4.13;3.83;;;;;;;;;;5077454;28;20234;-81
2021/07/30 06:25:56;;;;;;;4.30;4.00;;;;;;;;;;5089745;28;20020;-80
2021/07/30 06:28:22;;;;;;;4.65;3.90;;;;;;;;;;5087555;28;20020;-81
2021/07/30 06:30:48;;;;;;;5.75;4.82;;;;;;;;;;5084749;28;20023;-81
2021/07/30 06:33:15;;;;;;;4.93;4.53;;;;;;;;;;5098125;28;20024;-81
2021/07/30 06:35:41;;;;;;;5.95;5.32;;;;;;;;;;5101166;28;20024;-80
2021/07/30 06:38:08;;;;;;;5.32;4.20;;;;;;;;;;5098249;28;20024;-80
2021/07/30 06:40:34;;;;;;;5.10;4.60;;;;;;;;;;5085014;28;20131;-80
2021/07/30 06:43:00;;;;;;;5.43;4.93;;;;;;;;;;5095445;28;20029;-81
2021/07/30 06:45:26;;;;;;;5.93;5.10;;;;;;;;;;5091734;28;20031;-80
2021/07/30 06:47:52;;;;;;;8.93;5.63;;;;;;;;;;5078014;28;20024;-81
2021/07/30 06:50:18;;;;;;;6.10;5.05;;;;;;;;;;5077033;28;20078;-81
2021/07/30 06:52:44;;;;;;;5.55;5.03;;;;;;;;;;5083962;28;20051;-81
2021/07/30 06:55:10;;;;;;;5.10;4.60;;;;;;;;;;5106623;28;20012;-78
2021/07/30 06:57:37;;;;;;;6.03;5.30;;;;;;;;;;5100414;28;20048;-80
2021/07/30 07:00:03;;;;;;;5.63;5.07;;;;;;;;;;5089324;28;20566;-81
2021/07/30 07:02:29;;;;;;;5.57;4.75;;;;;;;;;;5081426;28;20032;-81
2021/07/30 07:04:55;;;;;;;6.55;4.85;;;;;;;;;;5080440;28;20029;-80
2021/07/30 07:07:22;;;;;;;6.25;5.65;;;;;;;;;;5080169;28;20131;-79
2021/07/30 07:09:48;;;;;;;5.18;4.78;;;;;;;;;;5080632;28;20046;-81
2021/07/30 07:12:14;;;;;;;5.30;4.80;;;;;;;;;;5090536;28;20032;-80
2021/07/30 07:14:40;;;;;;;8.35;4.82;;;;;;;;;;5090877;28;20052;-81
2021/07/30 07:17:06;;;;;;;6.40;5.80;;;;;;;;;;5094472;28;20077;-80
2021/07/30 07:19:32;;;;;;;6.13;5.00;;;;;;;;;;5105810;28;20050;-78
2021/07/30 07:21:58;;;;;;;5.43;4.93;;;;;;;;;;5106702;28;20036;-79
2021/07/30 07:24:24;;;;;;;7.57;5.10;;;;;;;;;;5091823;28;20024;-80
2021/07/30 07:26:50;;;;;;;5.72;5.22;;;;;;;;;;5090280;28;20532;-79
2021/07/30 07:29:16;;;;;;;6.88;5.95;;;;;;;;;;5098373;28;20027;-80
2021/07/30 07:31:45;;;;;;;6.38;5.28;;;;;;;;;;5099494;28;20043;-80
2021/07/30 07:34:11;;;;;;;6.22;5.60;;;;;;;;;;5098891;28;20020;-81
2021/07/30 07:36:37;;;;;;;7.10;5.90;;;;;;;;;;5099901;28;20022;-81
2021/07/30 07:39:03;;;;;;;7.70;6.07;;;;;;;;;;5099264;28;20020;-81
2021/07/30 07:41:30;;;;;;;6.13;5.53;;;;;;;;;;5097752;28;20021;-81
2021/07/30 07:43:56;;;;;;;6.63;5.85;;;;;;;;;;5096445;28;20073;-81
2021/07/30 07:46:22;;;;;;;6.75;5.97;;;;;;;;;;5091067;28;20034;-82
2021/07/30 07:48:48;;;;;;;5.70;5.20;;;;;;;;;;5099882;28;20096;-81
2021/07/30 07:51:14;;;;;;;6.70;5.85;;;;;;;;;;5100271;28;20161;-81
2021/07/30 07:53:40;;;;;;;5.90;5.40;;;;;;;;;;5084893;28;20066;-82
2021/07/30 07:56:07;;;;;;;6.03;5.43;;;;;;;;;;5079299;28;20021;-81
2021/07/30 07:58:33;;;;;;;6.75;6.13;;;;;;;;;;5079331;28;20016;-81
2021/07/30 08:01:00;;;;;;;6.28;5.78;;;;;;;;;;5091375;28;20028;-81
2021/07/30 08:03:26;;;;;;;6.00;5.45;;;;;;;;;;5090558;28;20350;-82
2021/07/30 08:05:54;;;;;;;5.82;5.32;;;;;;;;;;5079553;28;20017;-82
2021/07/30 08:08:20;;;;;;;6.57;5.93;;;;;;;;;;5080054;28;20095;-79
2021/07/30 08:10:47;;;;;;;6.53;5.53;;;;;;;;;;5076483;28;20281;-80
2021/07/30 08:13:13;;;;;;;8.25;5.63;;;;;;;;;;5082804;28;20056;-79
2021/07/30 08:15:40;;;;;;;11.85;7.05;;;;;;;;;;5101068;28;20078;-79
2021/07/30 08:18:06;;;;;;;7.20;6.05;;;;;;;;;;5114198;28;20145;-78
2021/07/30 08:20:32;;;;;;;6.93;6.28;;;;;;;;;;5116237;28;20020;-78
2021/07/30 08:22:58;;;;;;;7.00;5.85;;;;;;;;;;5109424;28;20028;-81
2021/07/30 08:25:24;;;;;;;6.75;6.05;;;;;;;;;;5079261;28;20020;-79
2021/07/30 08:27:50;;;;;;;7.05;6.07;;;;;;;;;;5076575;28;20361;-80
2021/07/30 08:30:16;;;;;;;6.47;5.88;;;;;;;;;;5077159;28;20103;-80
2021/07/30 08:32:42;;;;;;;6.60;5.57;;;;;;;;;;5077605;28;20425;-80
2021/07/30 08:35:09;;;;;;;6.32;5.80;;;;;;;;;;5092825;28;20032;-80
2021/07/30 08:37:35;;;;;;;6.43;5.82;;;;;;;;;;5098593;28;20035;-81
2021/07/30 08:40:01;;;;;;;6.18;5.60;;;;;;;;;;5098956;28;20056;-81
2021/07/30 08:42:27;;;;;;;6.32;5.72;;;;;;;;;;5099664;28;20058;-79
2021/07/30 08:44:54;;;;;;;7.03;6.18;;;;;;;;;;5085833;28;20074;-79
2021/07/30 08:47:23;;;;;;;7.72;5.63;;;;;;;;;;5098894;28;20044;-80
2021/07/30 08:49:49;;;;;;;7.60;5.93;;;;;;;;;;5097209;28;20150;-80
2021/07/30 08:52:17;;;;;;;6.85;5.15;;;;;;;;;;5098868;28;20035;-81
2021/07/30 08:54:44;;;;;;;6.05;5.55;;;;;;;;;;5097731;28;20032;-79
2021/07/30 08:57:14;;;;;;;5.78;5.28;;;;;;;;;;5098684;28;20087;-79
2021/07/30 08:59:41;;;;;;;7.70;5.97;;;;;;;;;;5097976;28;20020;-80
2021/07/30 09:02:08;;;;;;;5.53;5.03;;;;;;;;;;5097454;28;20043;-80
2021/07/30 09:04:34;;;;;;;5.88;5.38;;;;;;;;;;5098138;28;20103;-81
2021/07/30 09:07:02;;;;;;;5.85;5.35;;;;;;;;;;5079232;28;20021;-82
2021/07/30 09:09:30;;;;;;;6.13;5.57;;;;;;;;;;5079713;28;20027;-79
2021/07/30 09:11:58;;;;;;;6.22;5.63;;;;;;;;;;5079237;28;20102;-79
2021/07/30 09:14:36;;;;;;;7.43;5.82;;;;;;;;;;5085762;28;20111;-78
2021/07/30 09:17:03;;;;;;;5.82;5.30;;;;;;;;;;5095570;28;20028;-79
2021/07/30 09:19:29;;;;;;;8.20;5.70;;;;;;;;;;5101898;28;20467;-81
2021/07/30 09:22:02;;;;;;;6.88;5.47;;;;;;;;;;5098551;28;20438;-78
2021/07/30 09:24:33;;;;;;;6.20;5.60;;;;;;;;;;5107785;28;20024;-77
2021/07/30 09:27:00;;;;;;;5.95;5.45;;;;;;;;;;5100282;28;20028;-77
2021/07/30 09:29:28;;;;;;;6.60;6.00;;;;;;;;;;5105741;28;20020;-78
2021/07/30 09:31:55;;;;;;;6.55;5.95;;;;;;;;;;5105198;28;20080;-79
2021/07/30 09:34:26;;;;;;;6.00;5.50;;;;;;;;;;5106906;28;20465;-77
2021/07/30 09:37:00;;;;;;;6.00;5.47;;;;;;;;;;5095508;28;20024;-79
2021/07/30 09:39:35;;;;;;;6.72;6.13;;;;;;;;;;5091244;28;20080;-78
2021/07/30 09:42:04;;;;;;;6.20;5.65;;;;;;;;;;5092930;28;20017;-79
2021/07/30 09:44:31;;;;;;;6.30;5.70;;;;;;;;;;5101825;28;20001;-76
2021/07/30 09:47:03;;;;;;;6.22;5.72;;;;;;;;;;5110434;28;20115;-77
2021/07/30 09:49:35;;;;;;;6.20;5.60;;;;;;;;;;5107100;28;20028;-78
2021/07/30 09:52:02;;;;;;;6.03;5.43;;;;;;;;;;5108875;28;20038;-77
2021/07/30 09:54:28;;;;;;;6.93;6.32;;;;;;;;;;5107778;28;20035;-77
2021/07/30 09:56:54;;;;;;;6.43;5.93;;;;;;;;;;5101539;28;20032;-79
2021/07/30 09:59:21;;;;;;;7.40;6.70;;;;;;;;;;5089691;28;20119;-79
2021/07/30 10:01:47;;;;;;;6.55;5.95;;;;;;;;;;5087274;28;20025;-79
2021/07/30 10:04:13;;;;;;;5.88;5.38;;;;;;;;;;5087263;28;20025;-79
2021/07/30 10:06:39;;;;;;;7.03;6.35;;;;;;;;;;5092369;28;20031;-77
2021/07/30 10:09:06;;;;;;;6.30;5.70;;;;;;;;;;5089081;28;20029;-77
2021/07/30 10:11:37;;;;;;;6.20;5.63;;;;;;;;;;5099632;28;20088;-78
2021/07/30 10:14:05;;;;;;;6.43;5.72;;;;;;;;;;5104192;28;20020;-78
2021/07/30 10:16:35;;;;;;;6.22;5.63;;;;;;;;;;5096030;28;20039;-79
2021/07/30 10:19:01;;;;;;;6.28;5.72;;;;;;;;;;5103519;28;20036;-79
2021/07/30 10:21:28;;;;;;;6.20;5.60;;;;;;;;;;5099259;28;20063;-80
2021/07/30 10:23:54;;;;;;;5.93;5.30;;;;;;;;;;5091104;28;20100;-78
2021/07/30 10:26:25;;;;;;;5.93;5.00;;;;;;;;;;5080603;28;20017;-78
2021/07/30 10:28:51;;;;;;;6.10;5.60;;;;;;;;;;5088246;28;20064;-77
2021/07/30 10:31:17;;;;;;;6.45;5.82;;;;;;;;;;5099433;28;20028;-78
2021/07/30 10:33:43;;;;;;;5.50;5.00;;;;;;;;;;5104117;28;20060;-78
2021/07/30 10:36:28;;;;;;;6.55;5.95;;;;;;;;;;5110456;28;20116;-79
2021/07/30 10:39:15;;;;;;;6.25;5.40;;;;;;;;;;5112754;28;20012;-80
2021/07/30 10:42:01;;;;;;;6.78;5.55;;;;;;;;;;5090842;28;20020;-78
2021/07/30 10:44:27;;;;;;;6.32;5.80;;;;;;;;;;5099834;28;20029;-78
2021/07/30 10:47:12;;;;;;;6.60;5.97;;;;;;;;;;5091477;28;20029;-78
2021/07/30 10:49:39;;;;;;;5.50;5.05;;;;;;;;;;5103115;28;20025;-78
2021/07/30 10:52:26;;;;;;;5.78;5.18;;;;;;;;;;5091769;28;20044;-77
2021/07/30 10:54:52;;;;;;;5.80;5.00;;;;;;;;;;5094909;28;20025;-79
2021/07/30 10:57:37;;;;;;;6.03;5.53;;;;;;;;;;5092658;28;20042;-77
2021/07/30 11:00:05;;;;;;;5.68;5.18;;;;;;;;;;5099981;28;20024;-78
2021/07/30 11:02:51;;;;;;;5.93;5.28;;;;;;;;;;5088916;28;20067;-81
2021/07/30 11:05:17;;;;;;;5.22;4.82;;;;;;;;;;5099234;28;20028;-79
2021/07/30 11:07:43;;;;;;;9.63;5.82;;;;;;;;;;5097601;28;20070;-79
2021/07/30 11:10:14;;;;;;;5.32;4.88;;;;;;;;;;5081841;28;20033;-79
2021/07/30 11:12:40;;;;;;;5.82;5.32;;;;;;;;;;5093696;28;20053;-80
2021/07/30 11:15:10;;;;;;;5.90;4.88;;;;;;;;;;5079443;28;20029;-78
2021/07/30 11:17:36;;;;;;;5.90;5.40;;;;;;;;;;5096311;28;20029;-78
2021/07/30 11:20:03;;;;;;;5.45;4.82;;;;;;;;;;5081355;28;20043;-78
2021/07/30 11:22:29;;;;;;;5.72;5.20;;;;;;;;;;5078987;28;20029;-79
2021/07/30 11:24:55;;;;;;;6.18;5.65;;;;;;;;;;5098230;28;20118;-79
2021/07/30 11:27:22;;;;;;;6.13;5.60;;;;;;;;;;5101025;28;20016;-79
2021/07/30 11:29:52;;;;;;;7.25;5.38;;;;;;;;;;5098535;28;20028;-79
2021/07/30 11:32:19;;;;;;;5.15;4.75;;;;;;;;;;5090868;28;20035;-79
2021/07/30 11:34:46;;;;;;;5.53;5.03;;;;;;;;;;5097969;28;20224;-79
2021/07/30 11:37:16;;;;;;;5.97;5.43;;;;;;;;;;5098856;28;20032;-78
2021/07/30 11:39:45;;;;;;;5.32;4.82;;;;;;;;;;5100494;28;20077;-79
2021/07/30 11:42:12;;;;;;;5.78;5.28;;;;;;;;;;5100485;28;20024;-79
2021/07/30 11:45:00;;;;;;;5.47;5.00;;;;;;;;;;5086870;28;20020;-79
2021/07/30 11:47:28;;;;;;;5.20;4.80;;;;;;;;;;5091599;28;20054;-79
2021/07/30 11:50:05;;;;;;;5.20;4.70;;;;;;;;;;5090331;28;20017;-79
2021/07/30 11:52:31;;;;;;;6.38;5.78;;;;;;;;;;5098476;28;20016;-79
2021/07/30 11:55:17;;;;;;;5.55;5.07;;;;;;;;;;5096216;28;20024;-79
2021/07/30 11:57:43;;;;;;;6.15;5.35;;;;;;;;;;5080318;28;20031;-79
2021/07/30 12:00:10;;;;;;;5.78;5.18;;;;;;;;;;5079551;28;20025;-79
2021/07/30 12:02:36;;;;;;;5.63;5.10;;;;;;;;;;5080231;28;20039;-80
2021/07/30 12:05:02;;;;;;;6.07;5.57;;;;;;;;;;5080705;28;20065;-81
2021/07/30 12:07:31;;;;;;;5.80;5.20;;;;;;;;;;5090932;28;20054;-80
2021/07/30 12:09:58;;;;;;;5.15;4.75;;;;;;;;;;5102675;28;20353;-79
2021/07/30 12:12:25;;;;;;;5.38;4.97;;;;;;;;;;5101579;28;20091;-80
2021/07/30 12:14:52;;;;;;;5.50;5.00;;;;;;;;;;5100454;28;20028;-80
2021/07/30 12:17:19;;;;;;;5.72;5.20;;;;;;;;;;5080355;28;20025;-80
2021/07/30 12:19:55;;;;;;;5.13;4.78;;;;;;;;;;5081952;28;20129;-79
2021/07/30 12:22:32;;;;;;;5.28;4.85;;;;;;;;;;5082357;28;20043;-80
2021/07/30 12:25:01;;;;;;;5.47;4.97;;;;;;;;;;5082447;28;20024;-80
2021/07/30 12:27:27;;;;;;;9.40;6.10;;;;;;;;;;5083451;28;20025;-80
2021/07/30 12:29:53;;;;;;;5.45;4.97;;;;;;;;;;5083148;28;20096;-80
2021/07/30 12:32:23;;;;;;;5.68;5.13;;;;;;;;;;5080852;28;20031;-78
2021/07/30 12:35:00;;;;;;;8.35;5.00;;;;;;;;;;5082990;28;20111;-79
2021/07/30 12:37:27;;;;;;;6.60;5.90;;;;;;;;;;5086925;28;20053;-78
2021/07/30 12:39:54;;;;;;;6.63;5.15;;;;;;;;;;5093586;28;20016;-77
2021/07/30 12:42:21;;;;;;;6.45;5.20;;;;;;;;;;5101221;28;20028;-80
2021/07/30 12:45:06;;;;;;;6.82;6.00;;;;;;;;;;5092009;28;20046;-79
2021/07/30 12:47:34;;;;;;;6.03;5.45;;;;;;;;;;5081237;28;20016;-80
2021/07/30 12:50:00;;;;;;;5.40;4.90;;;;;;;;;;5082131;28;20048;-80
2021/07/30 12:52:27;;;;;;;6.38;5.82;;;;;;;;;;5078079;28;20032;-80
2021/07/30 12:55:03;;;;;;;5.72;5.20;;;;;;;;;;5093221;28;20027;-80
2021/07/30 12:57:29;;;;;;;5.82;5.43;;;;;;;;;;5079358;28;20048;-80
2021/07/30 12:59:59;;;;;;;6.05;5.40;;;;;;;;;;5090064;28;20024;-82
2021/07/30 13:02:30;;;;;;;6.43;5.82;;;;;;;;;;5093169;28;20029;-80
2021/07/30 13:04:57;;;;;;;5.20;4.78;;;;;;;;;;5082804;28;20049;-79
2021/07/30 13:07:26;;;;;;;5.45;5.05;;;;;;;;;;5084686;28;20088;-80
2021/07/30 13:09:52;;;;;;;6.55;4.60;;;;;;;;;;5080996;28;20048;-80
2021/07/30 13:12:18;;;;;;;5.78;5.18;;;;;;;;;;5080287;28;20331;-79
2021/07/30 13:14:46;;;;;;;5.22;4.82;;;;;;;;;;5097657;28;20035;-78
2021/07/30 13:17:12;;;;;;;6.85;5.03;;;;;;;;;;5099980;28;20024;-79
2021/07/30 13:19:38;;;;;;;5.78;5.18;;;;;;;;;;5095488;28;20028;-79
2021/07/30 13:22:04;;;;;;;5.93;5.32;;;;;;;;;;5087925;28;20111;-80
2021/07/30 13:24:30;;;;;;;5.25;4.78;;;;;;;;;;5100196;28;20031;-80
2021/07/30 13:26:56;;;;;;;6.20;5.63;;;;;;;;;;5093808;28;20080;-79
2021/07/30 13:29:22;;;;;;;6.45;5.38;;;;;;;;;;5079412;28;20016;-79
2021/07/30 13:31:49;;;;;;;5.63;5.13;;;;;;;;;;5082553;28;20057;-80
2021/07/30 13:34:15;;;;;;;5.55;5.05;;;;;;;;;;5081780;28;20046;-79
2021/07/30 13:36:42;;;;;;;6.47;4.82;;;;;;;;;;5081707;28;20049;-80
2021/07/30 13:39:08;;;;;;;5.55;4.97;;;;;;;;;;5085665;28;20461;-79
2021/07/30 13:41:34;;;;;;;5.68;5.22;;;;;;;;;;5102205;28;20039;-79
2021/07/30 13:44:00;;;;;;;5.97;5.47;;;;;;;;;;5095777;28;20073;-80
2021/07/30 13:46:26;;;;;;;5.50;5.07;;;;;;;;;;5088612;28;20040;-80
2021/07/30 13:48:52;;;;;;;6.50;5.90;;;;;;;;;;5090971;28;20016;-80
2021/07/30 13:51:18;;;;;;;6.38;5.78;;;;;;;;;;5101552;28;20051;-80
2021/07/30 13:53:44;;;;;;;5.80;5.40;;;;;;;;;;5103891;28;20028;-80
2021/07/30 13:56:10;;;;;;;6.15;5.68;;;;;;;;;;5102983;28;20102;-81
2021/07/30 13:58:36;;;;;;;6.45;5.95;;;;;;;;;;5102693;28;20024;-80
2021/07/30 14:01:02;;;;;;;6.85;5.55;;;;;;;;;;5092557;28;20036;-80
2021/07/30 14:03:28;;;;;;;6.00;5.40;;;;;;;;;;5087894;28;20083;-79
2021/07/30 14:05:54;;;;;;;5.28;4.88;;;;;;;;;;5099370;28;20031;-82
2021/07/30 14:08:21;;;;;;;6.90;5.80;;;;;;;;;;5098597;28;20028;-79
2021/07/30 14:10:47;;;;;;;5.85;5.28;;;;;;;;;;5101030;28;20502;-80
2021/07/30 14:13:13;;;;;;;6.88;5.32;;;;;;;;;;5094848;28;20178;-79
2021/07/30 14:15:39;;;;;;;5.88;5.32;;;;;;;;;;5087471;28;20024;-80
2021/07/30 14:18:06;;;;;;;7.30;5.65;;;;;;;;;;5096222;28;20028;-81
2021/07/30 14:20:32;;;;;;;6.18;5.75;;;;;;;;;;5097370;28;20040;-80
2021/07/30 14:22:59;;;;;;;6.63;6.03;;;;;;;;;;5087832;28;20036;-80
2021/07/30 14:25:25;;;;;;;6.18;5.45;;;;;;;;;;5087593;28;20052;-80
2021/07/30 14:27:51;;;;;;;6.00;5.50;;;;;;;;;;5078918;28;20115;-80
2021/07/30 14:30:17;;;;;;;5.43;4.85;;;;;;;;;;5088450;28;20346;-79
2021/07/30 14:32:44;;;;;;;6.38;5.78;;;;;;;;;;5079843;28;20303;-80
2021/07/30 14:35:10;;;;;;;5.88;5.45;;;;;;;;;;5093227;28;20050;-79
2021/07/30 14:37:37;;;;;;;6.03;5.53;;;;;;;;;;5096314;28;20062;-78
2021/07/30 14:40:06;;;;;;;5.72;5.22;;;;;;;;;;5094630;28;20027;-79
2021/07/30 14:42:33;;;;;;;5.88;5.40;;;;;;;;;;5096809;28;20105;-79